sensor_id;sensor_type;location;lat;lon;timestamp;temperature;humidity
563;DHT22;266;49.514;8.294;2023-10-08T00:01:20;19.20;99.90
563;DHT22;266;49.514;8.294;2023-10-08T00:03:49;19.20;99.90
563;DHT22;266;49.514;8.294;2023-10-08T00:06:19;19.20;99.90
563;DHT22;266;49.514;8.294;2023-10-08T00:08:49;19.20;99.90
563;DHT22;266;49.514;8.294;2023-10-08T00:11:17;19.20;99.90
563;DHT22;266;49.514;8.294;2023-10-08T00:13:45;19.10;99.90
563;DHT22;266;49.514;8.294;2023-10-08T00:16:18;19.10;99.90
563;DHT22;266;49.514;8.294;2023-10-08T00:18:48;19.20;99.90
563;DHT22;266;49.514;8.294;2023-10-08T00:21:19;19.10;99.90
563;DHT22;266;49.514;8.294;2023-10-08T00:23:54;19.10;99.90
563;DHT22;266;49.514;8.294;2023-10-08T00:26:26;19.10;99.90
563;DHT22;266;49.514;8.294;2023-10-08T00:28:58;19.10;99.90
563;DHT22;266;49.514;8.294;2023-10-08T00:31:28;19.10;99.90
563;DHT22;266;49.514;8.294;2023-10-08T00:33:59;19.00;99.90
563;DHT22;266;49.514;8.294;2023-10-08T00:36:28;18.90;99.90
563;DHT22;266;49.514;8.294;2023-10-08T00:38:56;18.80;99.90
563;DHT22;266;49.514;8.294;2023-10-08T00:41:27;18.60;99.90
563;DHT22;266;49.514;8.294;2023-10-08T00:44:00;18.40;99.90
563;DHT22;266;49.514;8.294;2023-10-08T00:46:33;18.20;99.90
563;DHT22;266;49.514;8.294;2023-10-08T00:49:06;18.00;99.90
563;DHT22;266;49.514;8.294;2023-10-08T00:51:52;17.80;99.90
563;DHT22;266;49.514;8.294;2023-10-08T00:54:51;17.70;99.90
563;DHT22;266;49.514;8.294;2023-10-08T00:57:33;17.50;99.90
563;DHT22;266;49.514;8.294;2023-10-08T01:00:03;17.40;99.90
563;DHT22;266;49.514;8.294;2023-10-08T01:02:43;17.30;99.90
563;DHT22;266;49.514;8.294;2023-10-08T01:05:14;17.20;99.90
563;DHT22;266;49.514;8.294;2023-10-08T01:07:46;17.10;99.90
563;DHT22;266;49.514;8.294;2023-10-08T01:10:17;17.00;99.90
563;DHT22;266;49.514;8.294;2023-10-08T01:12:47;16.80;99.90
563;DHT22;266;49.514;8.294;2023-10-08T01:15:32;16.80;99.90
563;DHT22;266;49.514;8.294;2023-10-08T01:18:04;16.70;99.90
563;DHT22;266;49.514;8.294;2023-10-08T01:20:41;16.60;99.90
563;DHT22;266;49.514;8.294;2023-10-08T01:23:17;16.50;99.90
563;DHT22;266;49.514;8.294;2023-10-08T01:25:49;16.50;99.90
563;DHT22;266;49.514;8.294;2023-10-08T01:28:19;16.40;99.90
563;DHT22;266;49.514;8.294;2023-10-08T01:30:52;16.30;99.90
563;DHT22;266;49.514;8.294;2023-10-08T01:33:22;16.10;99.90
563;DHT22;266;49.514;8.294;2023-10-08T01:35:55;16.10;99.90
563;DHT22;266;49.514;8.294;2023-10-08T01:38:30;16.00;99.90
563;DHT22;266;49.514;8.294;2023-10-08T01:40:59;15.90;99.90
563;DHT22;266;49.514;8.294;2023-10-08T01:43:45;15.80;99.90
563;DHT22;266;49.514;8.294;2023-10-08T01:46:13;15.70;99.90
563;DHT22;266;49.514;8.294;2023-10-08T01:48:42;15.60;99.90
563;DHT22;266;49.514;8.294;2023-10-08T01:51:12;15.60;99.90
563;DHT22;266;49.514;8.294;2023-10-08T01:53:54;15.50;99.90
563;DHT22;266;49.514;8.294;2023-10-08T01:56:25;15.40;99.90
563;DHT22;266;49.514;8.294;2023-10-08T01:58:54;15.40;99.90
563;DHT22;266;49.514;8.294;2023-10-08T02:01:22;15.30;99.90
563;DHT22;266;49.514;8.294;2023-10-08T02:03:50;15.20;99.90
563;DHT22;266;49.514;8.294;2023-10-08T02:06:21;15.10;99.90
563;DHT22;266;49.514;8.294;2023-10-08T02:08:49;15.00;99.90
563;DHT22;266;49.514;8.294;2023-10-08T02:11:18;15.00;99.90
563;DHT22;266;49.514;8.294;2023-10-08T02:13:48;14.90;99.90
563;DHT22;266;49.514;8.294;2023-10-08T02:16:19;15.10;99.90
563;DHT22;266;49.514;8.294;2023-10-08T02:18:49;15.30;99.90
563;DHT22;266;49.514;8.294;2023-10-08T02:21:18;15.50;99.90
563;DHT22;266;49.514;8.294;2023-10-08T02:23:46;15.60;99.90
563;DHT22;266;49.514;8.294;2023-10-08T02:26:15;15.70;99.90
563;DHT22;266;49.514;8.294;2023-10-08T02:28:47;15.80;99.90
563;DHT22;266;49.514;8.294;2023-10-08T02:31:17;16.00;99.90
563;DHT22;266;49.514;8.294;2023-10-08T02:33:45;16.20;99.90
563;DHT22;266;49.514;8.294;2023-10-08T02:36:14;16.40;99.90
563;DHT22;266;49.514;8.294;2023-10-08T02:38:42;16.60;99.90
563;DHT22;266;49.514;8.294;2023-10-08T02:41:15;16.70;99.90
563;DHT22;266;49.514;8.294;2023-10-08T02:43:44;16.70;99.90
563;DHT22;266;49.514;8.294;2023-10-08T02:46:13;16.80;99.90
563;DHT22;266;49.514;8.294;2023-10-08T02:48:42;16.80;99.90
563;DHT22;266;49.514;8.294;2023-10-08T02:51:09;16.80;99.90
563;DHT22;266;49.514;8.294;2023-10-08T02:53:41;16.80;99.90
563;DHT22;266;49.514;8.294;2023-10-08T02:56:10;16.80;99.90
563;DHT22;266;49.514;8.294;2023-10-08T02:58:41;16.90;99.90
563;DHT22;266;49.514;8.294;2023-10-08T03:01:10;16.90;99.90
563;DHT22;266;49.514;8.294;2023-10-08T03:03:41;16.80;99.90
563;DHT22;266;49.514;8.294;2023-10-08T03:06:10;16.80;99.90
563;DHT22;266;49.514;8.294;2023-10-08T03:08:41;16.90;99.90
563;DHT22;266;49.514;8.294;2023-10-08T03:11:10;17.00;99.90
563;DHT22;266;49.514;8.294;2023-10-08T03:13:46;17.00;99.90
563;DHT22;266;49.514;8.294;2023-10-08T03:16:18;17.00;99.90
563;DHT22;266;49.514;8.294;2023-10-08T03:18:55;17.00;99.90
563;DHT22;266;49.514;8.294;2023-10-08T03:21:24;17.00;99.90
563;DHT22;266;49.514;8.294;2023-10-08T03:24:15;17.00;99.90
563;DHT22;266;49.514;8.294;2023-10-08T03:26:57;17.00;99.90
563;DHT22;266;49.514;8.294;2023-10-08T03:29:33;17.00;99.90
563;DHT22;266;49.514;8.294;2023-10-08T03:32:07;17.00;99.90
563;DHT22;266;49.514;8.294;2023-10-08T03:34:44;17.00;99.90
563;DHT22;266;49.514;8.294;2023-10-08T03:37:13;17.00;99.90
563;DHT22;266;49.514;8.294;2023-10-08T03:39:50;17.00;99.90
563;DHT22;266;49.514;8.294;2023-10-08T03:42:32;16.90;99.90
563;DHT22;266;49.514;8.294;2023-10-08T03:45:07;16.80;99.90
563;DHT22;266;49.514;8.294;2023-10-08T03:47:39;16.50;99.90
563;DHT22;266;49.514;8.294;2023-10-08T03:50:15;16.20;99.90
563;DHT22;266;49.514;8.294;2023-10-08T03:52:44;16.10;99.90
563;DHT22;266;49.514;8.294;2023-10-08T03:55:13;15.90;99.90
563;DHT22;266;49.514;8.294;2023-10-08T03:57:48;15.90;99.90
563;DHT22;266;49.514;8.294;2023-10-08T04:00:24;15.80;99.90
563;DHT22;266;49.514;8.294;2023-10-08T04:02:58;15.70;99.90
563;DHT22;266;49.514;8.294;2023-10-08T04:05:37;15.60;99.90
563;DHT22;266;49.514;8.294;2023-10-08T04:08:26;15.50;99.90
563;DHT22;266;49.514;8.294;2023-10-08T04:11:09;15.40;99.90
563;DHT22;266;49.514;8.294;2023-10-08T04:13:54;15.20;99.90
563;DHT22;266;49.514;8.294;2023-10-08T04:16:26;14.90;99.90
563;DHT22;266;49.514;8.294;2023-10-08T04:18:54;14.80;99.90
563;DHT22;266;49.514;8.294;2023-10-08T04:21:24;14.70;99.90
563;DHT22;266;49.514;8.294;2023-10-08T04:23:55;14.70;99.90
563;DHT22;266;49.514;8.294;2023-10-08T04:26:24;14.60;99.90
563;DHT22;266;49.514;8.294;2023-10-08T04:28:53;14.50;99.90
563;DHT22;266;49.514;8.294;2023-10-08T04:31:24;14.50;99.90
563;DHT22;266;49.514;8.294;2023-10-08T04:33:55;14.40;99.90
563;DHT22;266;49.514;8.294;2023-10-08T04:36:28;14.40;99.90
563;DHT22;266;49.514;8.294;2023-10-08T04:38:58;14.30;99.90
563;DHT22;266;49.514;8.294;2023-10-08T04:41:31;14.30;99.90
563;DHT22;266;49.514;8.294;2023-10-08T04:44:00;14.30;99.90
563;DHT22;266;49.514;8.294;2023-10-08T04:46:35;14.30;99.90
563;DHT22;266;49.514;8.294;2023-10-08T04:49:14;14.40;99.90
563;DHT22;266;49.514;8.294;2023-10-08T04:51:57;14.40;99.90
563;DHT22;266;49.514;8.294;2023-10-08T04:54:26;14.30;99.90
563;DHT22;266;49.514;8.294;2023-10-08T04:56:58;14.20;99.90
563;DHT22;266;49.514;8.294;2023-10-08T04:59:28;14.10;99.90
563;DHT22;266;49.514;8.294;2023-10-08T05:02:02;14.00;99.90
563;DHT22;266;49.514;8.294;2023-10-08T05:04:48;13.90;99.90
563;DHT22;266;49.514;8.294;2023-10-08T05:07:50;13.80;99.90
563;DHT22;266;49.514;8.294;2023-10-08T05:10:36;13.70;99.90
563;DHT22;266;49.514;8.294;2023-10-08T05:13:28;13.60;99.90
563;DHT22;266;49.514;8.294;2023-10-08T05:16:00;13.60;99.90
563;DHT22;266;49.514;8.294;2023-10-08T05:18:46;13.60;99.90
563;DHT22;266;49.514;8.294;2023-10-08T05:21:41;13.60;99.90
563;DHT22;266;49.514;8.294;2023-10-08T05:24:20;13.60;99.90
563;DHT22;266;49.514;8.294;2023-10-08T05:26:54;13.60;99.90
563;DHT22;266;49.514;8.294;2023-10-08T05:29:47;13.50;99.90
563;DHT22;266;49.514;8.294;2023-10-08T05:32:35;13.50;99.90
563;DHT22;266;49.514;8.294;2023-10-08T05:35:18;13.40;99.90
563;DHT22;266;49.514;8.294;2023-10-08T05:38:07;13.30;99.90
563;DHT22;266;49.514;8.294;2023-10-08T05:40:44;13.40;99.90
563;DHT22;266;49.514;8.294;2023-10-08T05:43:32;13.30;99.90
563;DHT22;266;49.514;8.294;2023-10-08T05:46:18;13.30;99.90
563;DHT22;266;49.514;8.294;2023-10-08T05:49:04;13.30;99.90
563;DHT22;266;49.514;8.294;2023-10-08T05:51:52;13.30;99.90
563;DHT22;266;49.514;8.294;2023-10-08T05:54:51;13.30;99.90
563;DHT22;266;49.514;8.294;2023-10-08T05:57:44;13.30;99.90
563;DHT22;266;49.514;8.294;2023-10-08T06:00:18;13.30;99.90
563;DHT22;266;49.514;8.294;2023-10-08T06:03:04;13.20;99.90
563;DHT22;266;49.514;8.294;2023-10-08T06:05:38;13.20;99.90
563;DHT22;266;49.514;8.294;2023-10-08T06:08:14;13.20;99.90
563;DHT22;266;49.514;8.294;2023-10-08T06:10:48;13.10;99.90
563;DHT22;266;49.514;8.294;2023-10-08T06:13:28;13.10;99.90
563;DHT22;266;49.514;8.294;2023-10-08T06:16:11;13.20;99.90
563;DHT22;266;49.514;8.294;2023-10-08T06:18:58;13.20;99.90
563;DHT22;266;49.514;8.294;2023-10-08T06:21:26;13.30;99.90
563;DHT22;266;49.514;8.294;2023-10-08T06:23:57;13.20;99.90
563;DHT22;266;49.514;8.294;2023-10-08T06:26:25;13.20;99.90
563;DHT22;266;49.514;8.294;2023-10-08T06:28:55;13.20;99.90
563;DHT22;266;49.514;8.294;2023-10-08T06:31:25;13.30;99.90
563;DHT22;266;49.514;8.294;2023-10-08T06:33:54;13.40;99.90
563;DHT22;266;49.514;8.294;2023-10-08T06:36:24;13.50;99.90
563;DHT22;266;49.514;8.294;2023-10-08T06:38:52;13.50;99.90
563;DHT22;266;49.514;8.294;2023-10-08T06:41:20;13.50;99.90
563;DHT22;266;49.514;8.294;2023-10-08T06:44:16;13.60;99.90
563;DHT22;266;49.514;8.294;2023-10-08T06:46:44;13.60;99.90
563;DHT22;266;49.514;8.294;2023-10-08T06:49:15;13.70;99.90
563;DHT22;266;49.514;8.294;2023-10-08T06:51:45;13.80;99.90
563;DHT22;266;49.514;8.294;2023-10-08T06:54:14;13.80;99.90
563;DHT22;266;49.514;8.294;2023-10-08T06:56:44;13.90;99.90
563;DHT22;266;49.514;8.294;2023-10-08T06:59:20;14.00;99.90
563;DHT22;266;49.514;8.294;2023-10-08T07:01:53;14.10;99.90
563;DHT22;266;49.514;8.294;2023-10-08T07:04:21;14.10;99.90
563;DHT22;266;49.514;8.294;2023-10-08T07:06:50;14.30;99.90
563;DHT22;266;49.514;8.294;2023-10-08T07:09:19;14.40;99.90
563;DHT22;266;49.514;8.294;2023-10-08T07:11:57;14.50;99.90
563;DHT22;266;49.514;8.294;2023-10-08T07:14:33;14.60;99.90
563;DHT22;266;49.514;8.294;2023-10-08T07:17:02;14.60;99.90
563;DHT22;266;49.514;8.294;2023-10-08T07:19:35;14.70;99.90
563;DHT22;266;49.514;8.294;2023-10-08T07:22:07;14.80;99.90
563;DHT22;266;49.514;8.294;2023-10-08T07:24:45;14.90;99.90
563;DHT22;266;49.514;8.294;2023-10-08T07:27:18;15.20;99.90
563;DHT22;266;49.514;8.294;2023-10-08T07:29:50;15.40;99.90
563;DHT22;266;49.514;8.294;2023-10-08T07:32:23;15.60;99.90
563;DHT22;266;49.514;8.294;2023-10-08T07:34:53;15.90;99.90
563;DHT22;266;49.514;8.294;2023-10-08T07:37:32;16.10;99.90
563;DHT22;266;49.514;8.294;2023-10-08T07:40:00;16.40;99.90
563;DHT22;266;49.514;8.294;2023-10-08T07:42:35;16.60;99.90
563;DHT22;266;49.514;8.294;2023-10-08T07:45:05;16.80;99.90
563;DHT22;266;49.514;8.294;2023-10-08T07:47:34;16.90;99.90
563;DHT22;266;49.514;8.294;2023-10-08T07:50:02;17.10;99.90
563;DHT22;266;49.514;8.294;2023-10-08T07:52:38;17.10;99.90
563;DHT22;266;49.514;8.294;2023-10-08T07:55:09;17.20;99.90
563;DHT22;266;49.514;8.294;2023-10-08T07:57:37;17.30;99.90
563;DHT22;266;49.514;8.294;2023-10-08T08:00:08;17.30;99.90
563;DHT22;266;49.514;8.294;2023-10-08T08:02:45;17.40;99.90
563;DHT22;266;49.514;8.294;2023-10-08T08:05:14;17.40;99.90
563;DHT22;266;49.514;8.294;2023-10-08T08:07:44;17.30;99.90
563;DHT22;266;49.514;8.294;2023-10-08T08:10:13;17.40;99.90
563;DHT22;266;49.514;8.294;2023-10-08T08:12:45;17.40;99.90
563;DHT22;266;49.514;8.294;2023-10-08T08:15:14;17.50;99.90
563;DHT22;266;49.514;8.294;2023-10-08T08:17:43;17.40;99.90
563;DHT22;266;49.514;8.294;2023-10-08T08:20:15;17.40;99.90
563;DHT22;266;49.514;8.294;2023-10-08T08:22:46;17.40;99.90
563;DHT22;266;49.514;8.294;2023-10-08T08:25:17;17.40;99.90
563;DHT22;266;49.514;8.294;2023-10-08T08:27:53;17.50;99.90
563;DHT22;266;49.514;8.294;2023-10-08T08:30:23;17.50;99.90
563;DHT22;266;49.514;8.294;2023-10-08T08:32:53;17.60;99.90
563;DHT22;266;49.514;8.294;2023-10-08T08:35:23;17.60;99.90
563;DHT22;266;49.514;8.294;2023-10-08T08:37:51;17.70;99.90
563;DHT22;266;49.514;8.294;2023-10-08T08:40:20;17.80;99.90
563;DHT22;266;49.514;8.294;2023-10-08T08:42:50;17.80;99.90
563;DHT22;266;49.514;8.294;2023-10-08T08:45:20;17.90;99.90
563;DHT22;266;49.514;8.294;2023-10-08T08:47:50;17.90;99.90
563;DHT22;266;49.514;8.294;2023-10-08T08:50:19;18.00;99.90
563;DHT22;266;49.514;8.294;2023-10-08T08:52:48;18.00;99.90
563;DHT22;266;49.514;8.294;2023-10-08T08:55:19;18.10;99.90
563;DHT22;266;49.514;8.294;2023-10-08T08:57:49;18.10;99.90
563;DHT22;266;49.514;8.294;2023-10-08T09:00:19;18.20;99.90
563;DHT22;266;49.514;8.294;2023-10-08T09:02:50;18.30;99.90
563;DHT22;266;49.514;8.294;2023-10-08T09:12:55;18.40;99.90
563;DHT22;266;49.514;8.294;2023-10-08T09:15:25;18.60;99.90
563;DHT22;266;49.514;8.294;2023-10-08T09:17:55;18.60;99.90
563;DHT22;266;49.514;8.294;2023-10-08T09:20:24;18.60;99.90
563;DHT22;266;49.514;8.294;2023-10-08T09:23:06;18.80;99.90
563;DHT22;266;49.514;8.294;2023-10-08T09:25:39;18.90;99.90
563;DHT22;266;49.514;8.294;2023-10-08T09:28:08;19.00;99.90
563;DHT22;266;49.514;8.294;2023-10-08T09:30:38;19.10;99.90
563;DHT22;266;49.514;8.294;2023-10-08T09:33:10;19.10;99.90
563;DHT22;266;49.514;8.294;2023-10-08T09:35:39;19.10;99.90
563;DHT22;266;49.514;8.294;2023-10-08T09:38:07;19.30;99.90
563;DHT22;266;49.514;8.294;2023-10-08T09:40:37;19.30;99.90
563;DHT22;266;49.514;8.294;2023-10-08T09:43:05;19.40;99.90
563;DHT22;266;49.514;8.294;2023-10-08T09:45:37;19.60;99.90
563;DHT22;266;49.514;8.294;2023-10-08T09:48:12;19.70;99.90
563;DHT22;266;49.514;8.294;2023-10-08T09:50:45;19.80;99.90
563;DHT22;266;49.514;8.294;2023-10-08T09:53:14;20.00;99.90
563;DHT22;266;49.514;8.294;2023-10-08T09:55:47;20.10;99.90
563;DHT22;266;49.514;8.294;2023-10-08T09:58:17;20.20;99.90
563;DHT22;266;49.514;8.294;2023-10-08T10:00:45;20.30;99.90
563;DHT22;266;49.514;8.294;2023-10-08T10:03:17;20.40;99.90
563;DHT22;266;49.514;8.294;2023-10-08T10:05:48;20.40;99.90
563;DHT22;266;49.514;8.294;2023-10-08T10:08:17;20.50;99.90
563;DHT22;266;49.514;8.294;2023-10-08T10:10:46;20.60;99.90
563;DHT22;266;49.514;8.294;2023-10-08T10:13:17;20.70;99.90
563;DHT22;266;49.514;8.294;2023-10-08T10:15:45;20.80;99.90
563;DHT22;266;49.514;8.294;2023-10-08T10:18:26;20.90;99.90
563;DHT22;266;49.514;8.294;2023-10-08T10:20:58;21.10;99.90
563;DHT22;266;49.514;8.294;2023-10-08T10:23:35;21.20;99.90
563;DHT22;266;49.514;8.294;2023-10-08T10:26:04;21.30;99.90
563;DHT22;266;49.514;8.294;2023-10-08T10:28:36;21.30;99.90
563;DHT22;266;49.514;8.294;2023-10-08T10:31:04;21.40;99.90
563;DHT22;266;49.514;8.294;2023-10-08T10:33:36;21.40;99.90
563;DHT22;266;49.514;8.294;2023-10-08T10:36:07;21.30;99.90
563;DHT22;266;49.514;8.294;2023-10-08T10:38:35;21.30;99.90
563;DHT22;266;49.514;8.294;2023-10-08T10:41:05;21.30;99.90
563;DHT22;266;49.514;8.294;2023-10-08T10:43:35;21.50;99.90
563;DHT22;266;49.514;8.294;2023-10-08T10:46:06;21.50;99.90
563;DHT22;266;49.514;8.294;2023-10-08T10:48:57;21.60;99.90
563;DHT22;266;49.514;8.294;2023-10-08T10:51:47;21.60;99.90
563;DHT22;266;49.514;8.294;2023-10-08T10:54:16;21.60;99.90
563;DHT22;266;49.514;8.294;2023-10-08T10:56:51;21.60;99.90
563;DHT22;266;49.514;8.294;2023-10-08T10:59:30;21.70;99.90
563;DHT22;266;49.514;8.294;2023-10-08T11:02:07;21.90;99.90
563;DHT22;266;49.514;8.294;2023-10-08T11:04:37;22.20;99.90
563;DHT22;266;49.514;8.294;2023-10-08T11:07:15;22.40;99.90
563;DHT22;266;49.514;8.294;2023-10-08T11:09:44;22.50;99.90
563;DHT22;266;49.514;8.294;2023-10-08T11:12:14;22.50;99.90
563;DHT22;266;49.514;8.294;2023-10-08T11:14:49;22.50;99.90
563;DHT22;266;49.514;8.294;2023-10-08T11:17:23;22.70;99.90
563;DHT22;266;49.514;8.294;2023-10-08T11:19:54;22.90;99.90
563;DHT22;266;49.514;8.294;2023-10-08T11:22:28;23.10;99.90
563;DHT22;266;49.514;8.294;2023-10-08T11:25:20;23.30;99.90
563;DHT22;266;49.514;8.294;2023-10-08T11:27:51;23.60;99.90
563;DHT22;266;49.514;8.294;2023-10-08T11:30:26;23.70;99.90
563;DHT22;266;49.514;8.294;2023-10-08T11:32:57;23.80;99.90
563;DHT22;266;49.514;8.294;2023-10-08T11:35:27;24.00;99.90
563;DHT22;266;49.514;8.294;2023-10-08T11:38:01;24.20;99.90
563;DHT22;266;49.514;8.294;2023-10-08T11:40:30;24.40;99.90
563;DHT22;266;49.514;8.294;2023-10-08T11:43:15;24.60;99.90
563;DHT22;266;49.514;8.294;2023-10-08T11:45:43;25.10;99.90
563;DHT22;266;49.514;8.294;2023-10-08T11:48:15;25.40;99.90
563;DHT22;266;49.514;8.294;2023-10-08T11:50:54;25.70;99.90
563;DHT22;266;49.514;8.294;2023-10-08T11:53:24;26.00;99.90
563;DHT22;266;49.514;8.294;2023-10-08T11:55:52;26.20;99.90
563;DHT22;266;49.514;8.294;2023-10-08T11:58:24;26.30;99.90
563;DHT22;266;49.514;8.294;2023-10-08T12:01:04;26.60;99.90
563;DHT22;266;49.514;8.294;2023-10-08T12:03:34;26.90;99.90
563;DHT22;266;49.514;8.294;2023-10-08T12:06:04;27.20;99.90
563;DHT22;266;49.514;8.294;2023-10-08T12:08:33;27.30;99.90
563;DHT22;266;49.514;8.294;2023-10-08T12:11:06;27.00;99.90
563;DHT22;266;49.514;8.294;2023-10-08T12:13:40;26.80;99.90
563;DHT22;266;49.514;8.294;2023-10-08T12:16:12;26.80;99.90
563;DHT22;266;49.514;8.294;2023-10-08T12:18:49;27.00;99.90
563;DHT22;266;49.514;8.294;2023-10-08T12:21:23;27.20;99.90
563;DHT22;266;49.514;8.294;2023-10-08T12:23:51;27.40;99.90
563;DHT22;266;49.514;8.294;2023-10-08T12:26:22;27.70;99.90
563;DHT22;266;49.514;8.294;2023-10-08T12:28:50;27.80;99.90
563;DHT22;266;49.514;8.294;2023-10-08T12:31:21;28.20;99.90
563;DHT22;266;49.514;8.294;2023-10-08T12:33:49;28.60;99.90
563;DHT22;266;49.514;8.294;2023-10-08T12:36:20;29.00;99.90
563;DHT22;266;49.514;8.294;2023-10-08T12:38:51;29.30;99.90
563;DHT22;266;49.514;8.294;2023-10-08T12:41:25;29.20;99.90
563;DHT22;266;49.514;8.294;2023-10-08T12:43:53;29.30;99.90
563;DHT22;266;49.514;8.294;2023-10-08T12:46:22;29.30;99.90
563;DHT22;266;49.514;8.294;2023-10-08T12:48:53;29.50;99.90
563;DHT22;266;49.514;8.294;2023-10-08T12:51:24;29.40;99.90
563;DHT22;266;49.514;8.294;2023-10-08T12:53:54;29.40;99.90
563;DHT22;266;49.514;8.294;2023-10-08T12:56:31;29.70;99.90
563;DHT22;266;49.514;8.294;2023-10-08T12:59:12;30.40;99.90
563;DHT22;266;49.514;8.294;2023-10-08T13:01:48;30.40;99.90
563;DHT22;266;49.514;8.294;2023-10-08T13:04:18;29.70;99.90
563;DHT22;266;49.514;8.294;2023-10-08T13:06:55;29.50;99.90
563;DHT22;266;49.514;8.294;2023-10-08T13:09:26;29.30;99.90
563;DHT22;266;49.514;8.294;2023-10-08T13:11:55;29.10;99.90
563;DHT22;266;49.514;8.294;2023-10-08T13:14:26;29.30;99.90
563;DHT22;266;49.514;8.294;2023-10-08T13:16:54;29.50;99.90
563;DHT22;266;49.514;8.294;2023-10-08T13:19:22;29.70;99.90
563;DHT22;266;49.514;8.294;2023-10-08T13:21:52;30.00;99.90
563;DHT22;266;49.514;8.294;2023-10-08T13:24:20;30.40;99.90
563;DHT22;266;49.514;8.294;2023-10-08T13:27:00;30.70;99.90
563;DHT22;266;49.514;8.294;2023-10-08T13:29:28;30.90;99.90
563;DHT22;266;49.514;8.294;2023-10-08T13:32:03;30.90;99.90
563;DHT22;266;49.514;8.294;2023-10-08T13:34:32;30.70;99.90
563;DHT22;266;49.514;8.294;2023-10-08T13:37:00;30.50;99.90
563;DHT22;266;49.514;8.294;2023-10-08T13:39:29;30.50;99.90
563;DHT22;266;49.514;8.294;2023-10-08T13:41:57;30.10;99.90
563;DHT22;266;49.514;8.294;2023-10-08T13:44:29;29.30;99.90
563;DHT22;266;49.514;8.294;2023-10-08T13:46:58;28.60;99.90
563;DHT22;266;49.514;8.294;2023-10-08T13:49:27;28.00;99.90
563;DHT22;266;49.514;8.294;2023-10-08T13:51:56;27.40;99.90
563;DHT22;266;49.514;8.294;2023-10-08T13:54:24;27.20;99.90
563;DHT22;266;49.514;8.294;2023-10-08T13:56:56;27.10;99.90
563;DHT22;266;49.514;8.294;2023-10-08T13:59:26;27.00;99.90
563;DHT22;266;49.514;8.294;2023-10-08T14:02:00;26.70;99.90
563;DHT22;266;49.514;8.294;2023-10-08T14:04:29;26.40;99.90
563;DHT22;266;49.514;8.294;2023-10-08T14:07:02;26.20;99.90
563;DHT22;266;49.514;8.294;2023-10-08T14:09:32;26.10;99.90
563;DHT22;266;49.514;8.294;2023-10-08T14:12:05;26.00;99.90
563;DHT22;266;49.514;8.294;2023-10-08T14:14:34;26.00;99.90
563;DHT22;266;49.514;8.294;2023-10-08T14:17:04;25.80;99.90
563;DHT22;266;49.514;8.294;2023-10-08T14:19:35;25.70;99.90
563;DHT22;266;49.514;8.294;2023-10-08T14:22:07;25.60;99.90
563;DHT22;266;49.514;8.294;2023-10-08T14:24:42;25.50;99.90
563;DHT22;266;49.514;8.294;2023-10-08T14:27:13;25.50;99.90
563;DHT22;266;49.514;8.294;2023-10-08T14:29:43;25.40;99.90
563;DHT22;266;49.514;8.294;2023-10-08T14:32:15;25.40;99.90
563;DHT22;266;49.514;8.294;2023-10-08T14:34:44;25.40;99.90
563;DHT22;266;49.514;8.294;2023-10-08T14:37:30;25.40;99.90
563;DHT22;266;49.514;8.294;2023-10-08T14:40:16;25.50;99.90
563;DHT22;266;49.514;8.294;2023-10-08T14:43:02;25.60;99.90
563;DHT22;266;49.514;8.294;2023-10-08T14:45:32;25.80;99.90
563;DHT22;266;49.514;8.294;2023-10-08T14:48:05;25.90;99.90
563;DHT22;266;49.514;8.294;2023-10-08T14:50:38;26.00;99.90
563;DHT22;266;49.514;8.294;2023-10-08T14:53:07;26.00;99.90
563;DHT22;266;49.514;8.294;2023-10-08T14:55:36;26.00;99.90
563;DHT22;266;49.514;8.294;2023-10-08T14:58:05;25.90;99.90
563;DHT22;266;49.514;8.294;2023-10-08T15:00:36;25.80;99.90
563;DHT22;266;49.514;8.294;2023-10-08T15:03:07;25.70;99.90
563;DHT22;266;49.514;8.294;2023-10-08T15:05:35;25.70;99.90
563;DHT22;266;49.514;8.294;2023-10-08T15:08:05;25.60;99.90
563;DHT22;266;49.514;8.294;2023-10-08T15:10:37;25.50;99.90
563;DHT22;266;49.514;8.294;2023-10-08T15:13:06;25.30;99.90
563;DHT22;266;49.514;8.294;2023-10-08T15:15:36;25.10;99.90
563;DHT22;266;49.514;8.294;2023-10-08T15:18:08;25.00;99.90
563;DHT22;266;49.514;8.294;2023-10-08T15:20:39;25.00;99.90
563;DHT22;266;49.514;8.294;2023-10-08T15:23:08;24.90;99.90
563;DHT22;266;49.514;8.294;2023-10-08T15:25:39;24.80;99.90
563;DHT22;266;49.514;8.294;2023-10-08T15:28:09;24.70;99.90
563;DHT22;266;49.514;8.294;2023-10-08T15:30:38;24.60;99.90
563;DHT22;266;49.514;8.294;2023-10-08T15:33:08;24.40;99.90
563;DHT22;266;49.514;8.294;2023-10-08T15:35:36;24.30;99.90
563;DHT22;266;49.514;8.294;2023-10-08T15:38:04;24.10;99.90
563;DHT22;266;49.514;8.294;2023-10-08T15:40:32;24.00;99.90
563;DHT22;266;49.514;8.294;2023-10-08T15:43:01;23.90;99.90
563;DHT22;266;49.514;8.294;2023-10-08T15:45:31;23.80;99.90
563;DHT22;266;49.514;8.294;2023-10-08T15:47:59;23.70;99.90
563;DHT22;266;49.514;8.294;2023-10-08T15:50:28;23.50;99.90
563;DHT22;266;49.514;8.294;2023-10-08T15:53:09;23.40;99.90
563;DHT22;266;49.514;8.294;2023-10-08T15:55:37;23.30;99.90
563;DHT22;266;49.514;8.294;2023-10-08T15:58:11;23.30;99.90
563;DHT22;266;49.514;8.294;2023-10-08T16:00:40;23.20;99.90
563;DHT22;266;49.514;8.294;2023-10-08T16:03:08;23.10;99.90
563;DHT22;266;49.514;8.294;2023-10-08T16:05:38;23.00;99.90
563;DHT22;266;49.514;8.294;2023-10-08T16:08:07;22.90;99.90
563;DHT22;266;49.514;8.294;2023-10-08T16:10:35;22.70;99.90
563;DHT22;266;49.514;8.294;2023-10-08T16:13:03;22.70;99.90
563;DHT22;266;49.514;8.294;2023-10-08T16:15:31;22.60;99.90
563;DHT22;266;49.514;8.294;2023-10-08T16:18:07;22.60;99.90
563;DHT22;266;49.514;8.294;2023-10-08T16:20:38;22.50;99.90
563;DHT22;266;49.514;8.294;2023-10-08T16:23:06;22.50;99.90
563;DHT22;266;49.514;8.294;2023-10-08T16:25:37;22.50;99.90
563;DHT22;266;49.514;8.294;2023-10-08T16:28:12;22.40;99.90
563;DHT22;266;49.514;8.294;2023-10-08T16:30:40;22.30;99.90
563;DHT22;266;49.514;8.294;2023-10-08T16:33:10;22.30;99.90
563;DHT22;266;49.514;8.294;2023-10-08T16:35:40;22.10;99.90
563;DHT22;266;49.514;8.294;2023-10-08T16:38:08;22.00;99.90
563;DHT22;266;49.514;8.294;2023-10-08T16:40:36;21.90;99.90
563;DHT22;266;49.514;8.294;2023-10-08T16:43:04;21.70;99.90
563;DHT22;266;49.514;8.294;2023-10-08T16:45:38;21.60;99.90
563;DHT22;266;49.514;8.294;2023-10-08T16:48:08;21.50;99.90
563;DHT22;266;49.514;8.294;2023-10-08T16:50:37;21.40;99.90
563;DHT22;266;49.514;8.294;2023-10-08T16:53:07;21.30;99.90
563;DHT22;266;49.514;8.294;2023-10-08T16:55:35;21.20;99.90
563;DHT22;266;49.514;8.294;2023-10-08T16:58:04;21.00;99.90
563;DHT22;266;49.514;8.294;2023-10-08T17:00:32;20.90;99.90
563;DHT22;266;49.514;8.294;2023-10-08T17:03:01;20.80;99.90
563;DHT22;266;49.514;8.294;2023-10-08T17:05:29;20.70;99.90
563;DHT22;266;49.514;8.294;2023-10-08T17:07:57;20.50;99.90
563;DHT22;266;49.514;8.294;2023-10-08T17:10:27;20.40;99.90
563;DHT22;266;49.514;8.294;2023-10-08T17:12:57;20.30;99.90
563;DHT22;266;49.514;8.294;2023-10-08T17:15:26;20.10;99.90
563;DHT22;266;49.514;8.294;2023-10-08T17:17:54;20.00;99.90